createdAt,value
2022-07-31T00:03:12.174Z,101653.41
2022-07-31T00:08:15.254Z,101636.69
2022-07-31T00:13:17.111Z,101629.41
2022-07-31T00:18:18.970Z,101610.72
2022-07-31T00:23:20.921Z,101619.50
2022-07-31T00:28:48.436Z,101609.22
2022-07-31T00:33:50.186Z,101604.75
2022-07-31T00:38:51.991Z,101603.28
2022-07-31T00:43:53.870Z,101598.31
2022-07-31T00:48:55.698Z,101598.78
2022-07-31T00:53:57.483Z,101588.69
2022-07-31T00:58:59.203Z,101583.94
2022-07-31T01:04:00.922Z,101569.59
2022-07-31T01:09:02.800Z,101575.56
2022-07-31T01:14:07.961Z,101581.19
2022-07-31T01:19:37.973Z,101574.56
2022-07-31T01:25:11.033Z,101582.50
2022-07-31T01:30:30.957Z,101579.97
2022-07-31T01:35:39.564Z,101570.72
2022-07-31T01:40:47.723Z,101561.31
2022-07-31T01:45:56.683Z,101555.50
2022-07-31T01:51:03.011Z,101555.66
2022-07-31T01:56:14.205Z,101547.75
2022-07-31T02:01:17.243Z,101549.97
2022-07-31T02:06:20.678Z,101549.75
2022-07-31T02:11:23.587Z,101547.16
2022-07-31T02:16:27.741Z,101543.06
2022-07-31T02:21:38.877Z,101535.22
2022-07-31T02:26:41.241Z,101523.22
2022-07-31T02:32:02.825Z,101516.94
2022-07-31T02:37:07.961Z,101519.31
2022-07-31T02:42:10.507Z,101516.78
2022-07-31T02:47:13.161Z,101516.78
2022-07-31T02:52:16.312Z,101511.13
2022-07-31T02:57:18.451Z,101505.59
2022-07-31T03:02:20.296Z,101493.59
2022-07-31T03:07:22.070Z,101494.03
2022-07-31T03:12:25.281Z,101485.69
2022-07-31T03:17:38.052Z,101486.31
2022-07-31T03:22:41.475Z,101474.09
2022-07-31T03:28:09.276Z,101469.56
2022-07-31T03:33:11.004Z,101477.69
2022-07-31T03:38:38.698Z,101472.34
2022-07-31T03:43:46.954Z,101453.97
2022-07-31T03:48:53.003Z,101453.56
2022-07-31T03:53:56.184Z,101461.88
2022-07-31T03:59:25.172Z,101460.81
2022-07-31T04:04:29.063Z,101452.88
2022-07-31T04:09:36.158Z,101458.66
2022-07-31T04:14:41.712Z,101450.50
2022-07-31T04:19:43.442Z,101455.25
2022-07-31T04:24:45.796Z,101453.09
2022-07-31T04:30:05.633Z,101458.03
2022-07-31T04:35:08.351Z,101458.41
2022-07-31T04:40:11.105Z,101444.44
2022-07-31T04:45:12.959Z,101446.19
2022-07-31T04:50:15.188Z,101448.78
2022-07-31T04:55:30.062Z,101435.19
2022-07-31T05:00:31.925Z,101435.88
2022-07-31T05:05:34.077Z,101433.28
2022-07-31T05:10:54.612Z,101433.28
2022-07-31T05:15:57.674Z,101435.66
2022-07-31T05:20:59.623Z,101435.66
2022-07-31T05:26:09.805Z,101428.75
2022-07-31T05:31:12.787Z,101433.28
2022-07-31T05:36:15.727Z,101438.50
2022-07-31T05:41:18.196Z,101420.66
2022-07-31T05:46:29.450Z,101431.19
2022-07-31T05:51:31.507Z,101421.47
2022-07-31T05:56:33.533Z,101418.63
2022-07-31T06:01:36.668Z,101411.97
2022-07-31T06:06:40.245Z,101416.69
2022-07-31T06:12:07.213Z,101419.44
2022-07-31T06:17:09.298Z,101412.59
2022-07-31T06:22:12.905Z,101416.44
2022-07-31T06:28:17.654Z,101413.22
2022-07-31T06:33:36.763Z,101425.88
2022-07-31T06:38:40.002Z,101421.31
2022-07-31T06:44:00.168Z,101418.75
2022-07-31T06:49:57.715Z,101423.47
2022-07-31T06:55:08.177Z,101422.38
2022-07-31T07:00:21.056Z,101427.06
2022-07-31T07:05:27.014Z,101405.34
2022-07-31T07:10:31.236Z,101408.44
2022-07-31T07:15:34.194Z,101412.25
2022-07-31T07:20:36.238Z,101410.78
2022-07-31T07:25:38.387Z,101409.34
2022-07-31T07:30:42.452Z,101404.84
2022-07-31T07:36:24.010Z,101405.00
2022-07-31T07:48:06.470Z,101391.97
2022-07-31T08:00:34.605Z,101377.81
2022-07-31T08:05:38.452Z,101379.69
2022-07-31T08:10:41.186Z,101380.59
2022-07-31T08:16:34.605Z,101385.25
2022-07-31T08:21:37.641Z,101378.03
2022-07-31T08:26:58.492Z,101378.88
2022-07-31T08:32:01.074Z,101369.06
2022-07-31T08:37:57.573Z,101361.09
2022-07-31T08:49:05.497Z,101367.38
2022-07-31T08:54:13.554Z,101365.59
2022-07-31T08:59:18.160Z,101360.69
2022-07-31T09:04:21.215Z,101368.31
2022-07-31T09:09:23.107Z,101372.66
2022-07-31T09:14:42.319Z,101366.56
2022-07-31T09:19:52.756Z,101370.38
2022-07-31T09:25:16.397Z,101360.19
2022-07-31T09:30:55.875Z,101368.38
2022-07-31T09:36:26.285Z,101369.88
2022-07-31T09:42:00.085Z,101370.94
2022-07-31T09:52:59.563Z,101361.34
2022-07-31T09:58:06.701Z,101365.19
2022-07-31T10:03:23.541Z,101358.84
2022-07-31T10:08:29.072Z,101358.84
2022-07-31T10:13:54.240Z,101369.53
2022-07-31T10:19:04.763Z,101367.41
2022-07-31T10:24:54.563Z,101365.06
2022-07-31T10:30:59.049Z,101371.25
2022-07-31T10:36:33.201Z,101368.53
2022-07-31T10:42:16.138Z,101361.63
2022-07-31T10:47:20.162Z,101353.41
2022-07-31T10:52:44.655Z,101362.41
2022-07-31T10:57:57.008Z,101360.69
2022-07-31T11:03:24.794Z,101360.47
2022-07-31T11:08:49.525Z,101354.66
2022-07-31T11:14:12.765Z,101358.13
2022-07-31T11:19:41.654Z,101359.63
2022-07-31T11:24:54.838Z,101358.53
2022-07-31T11:30:10.736Z,101353.16
2022-07-31T11:35:39.585Z,101348.41
2022-07-31T11:40:51.415Z,101346.06
2022-07-31T11:45:58.212Z,101355.97
2022-07-31T11:51:01.529Z,101352.53
2022-07-31T11:56:08.388Z,101359.47
2022-07-31T12:01:12.743Z,101359.84
2022-07-31T12:06:21.237Z,101350.00
2022-07-31T12:17:07.157Z,101362.88
2022-07-31T12:22:24.425Z,101357.28
2022-07-31T12:27:26.814Z,101344.59
2022-07-31T12:32:29.288Z,101350.19
2022-07-31T12:37:31.482Z,101339.66
2022-07-31T12:42:41.856Z,101344.81
2022-07-31T12:47:45.631Z,101347.84
2022-07-31T12:52:54.452Z,101341.81
2022-07-31T12:57:57.136Z,101339.47
2022-07-31T13:02:59.374Z,101349.56
2022-07-31T13:08:01.264Z,101344.00
2022-07-31T13:13:05.080Z,101348.94
2022-07-31T13:18:08.389Z,101343.09
2022-07-31T13:23:10.937Z,101336.31
2022-07-31T13:28:13.632Z,101344.41
2022-07-31T13:33:15.931Z,101335.41
2022-07-31T13:38:20.417Z,101330.31
2022-07-31T13:43:22.647Z,101330.69
2022-07-31T13:48:26.792Z,101342.44
2022-07-31T13:53:28.819Z,101325.78
2022-07-31T13:58:41.412Z,101333.75
2022-07-31T14:03:45.578Z,101330.31
2022-07-31T14:08:50.600Z,101324.47
2022-07-31T14:13:53.166Z,101324.47
2022-07-31T14:19:04.272Z,101322.38
2022-07-31T14:24:08.733Z,101327.09
2022-07-31T14:29:10.812Z,101322.59
2022-07-31T14:34:13.286Z,101321.53
2022-07-31T14:39:17.824Z,101330.94
2022-07-31T14:44:21.473Z,101318.22
2022-07-31T14:50:07.699Z,101314.84
2022-07-31T14:55:01.230Z,101325.06
2022-07-31T15:00:12.328Z,101316.47
2022-07-31T15:06:39.551Z,101318.81
2022-07-31T15:10:37.184Z,101311.47
2022-07-31T15:15:39.394Z,101315.97
2022-07-31T15:20:41.154Z,101312.72
2022-07-31T15:25:42.918Z,101313.97
2022-07-31T15:30:44.870Z,101304.75
2022-07-31T15:35:47.882Z,101313.50
2022-07-31T15:40:52.517Z,101317.84
2022-07-31T15:45:54.927Z,101319.84
2022-07-31T15:50:57.710Z,101317.69
2022-07-31T15:56:05.122Z,101318.94
2022-07-31T16:01:07.322Z,101315.97
2022-07-31T16:06:09.390Z,101320.28
2022-07-31T16:11:17.168Z,101325.66
2022-07-31T16:16:18.891Z,101323.09
2022-07-31T16:21:20.704Z,101316.66
2022-07-31T16:26:23.566Z,101313.47
2022-07-31T16:31:28.519Z,101316.06
2022-07-31T16:36:32.726Z,101317.53
2022-07-31T16:41:35.354Z,101313.91
2022-07-31T16:46:37.076Z,101311.72
2022-07-31T16:51:39.137Z,101304.94
2022-07-31T16:57:06.362Z,101304.50
2022-07-31T17:02:08.683Z,101306.25
2022-07-31T17:07:11.174Z,101303.03
2022-07-31T17:12:17.918Z,101310.97
2022-07-31T17:17:44.659Z,101314.81
2022-07-31T17:22:48.373Z,101312.47
2022-07-31T17:27:56.105Z,101313.28
2022-07-31T17:32:57.883Z,101306.59
2022-07-31T17:38:00.322Z,101314.97
2022-07-31T17:43:02.427Z,101307.06
2022-07-31T17:48:08.487Z,101308.50
2022-07-31T17:53:12.313Z,101321.19
2022-07-31T17:58:18.919Z,101327.22
2022-07-31T18:03:23.064Z,101327.66
2022-07-31T18:08:25.710Z,101329.38
2022-07-31T18:13:27.978Z,101325.56
2022-07-31T18:18:30.161Z,101338.81
2022-07-31T18:23:32.445Z,101340.38
2022-07-31T18:28:35.462Z,101344.88
2022-07-31T18:33:42.560Z,101344.41
2022-07-31T18:38:44.453Z,101349.34
2022-07-31T18:43:47.742Z,101351.53
2022-07-31T18:48:54.659Z,101357.31
2022-07-31T18:53:58.365Z,101364.22
2022-07-31T18:59:00.667Z,101365.31
2022-07-31T19:04:02.798Z,101374.53
2022-07-31T19:09:05.084Z,101365.47
2022-07-31T19:14:07.080Z,101374.94
2022-07-31T19:19:09.111Z,101381.44
2022-07-31T19:24:12.346Z,101384.91
2022-07-31T19:29:15.474Z,101392.22
2022-07-31T19:34:18.342Z,101393.88
2022-07-31T19:39:20.810Z,101403.53
2022-07-31T19:44:22.745Z,101413.66
2022-07-31T19:49:24.898Z,101419.22
2022-07-31T19:54:27.286Z,101428.25
2022-07-31T19:59:34.248Z,101424.44
2022-07-31T20:04:38.500Z,101427.88
2022-07-31T20:09:51.406Z,101427.59
2022-07-31T20:15:17.963Z,101444.19
2022-07-31T20:20:19.822Z,101445.44
2022-07-31T20:25:22.781Z,101449.72
2022-07-31T20:30:25.280Z,101455.75
2022-07-31T20:35:33.030Z,101463.50
2022-07-31T20:40:53.964Z,101466.50
2022-07-31T20:46:21.865Z,101469.09
2022-07-31T20:51:24.547Z,101468.84
2022-07-31T20:56:32.414Z,101467.75
2022-07-31T21:01:34.461Z,101470.78
2022-07-31T21:06:37.589Z,101480.66
2022-07-31T21:11:42.468Z,101474.91
2022-07-31T21:16:44.200Z,101486.00
2022-07-31T21:21:46.195Z,101487.97
2022-07-31T21:26:51.873Z,101493.75
2022-07-31T21:31:57.454Z,101495.25
2022-07-31T21:37:03.624Z,101489.91
2022-07-31T21:42:09.178Z,101487.75
2022-07-31T21:47:15.676Z,101486.25
2022-07-31T21:52:20.061Z,101493.97
2022-07-31T21:57:22.356Z,101494.16
2022-07-31T22:02:24.103Z,101488.16
2022-07-31T22:07:32.498Z,101490.06
2022-07-31T22:12:34.742Z,101493.97
2022-07-31T22:17:36.697Z,101494.59
2022-07-31T22:22:39.055Z,101497.38
2022-07-31T22:27:55.015Z,101496.28
2022-07-31T22:33:00.369Z,101504.66
2022-07-31T22:38:02.124Z,101502.97
2022-07-31T22:43:05.068Z,101512.38
2022-07-31T22:48:28.309Z,101511.53
2022-07-31T22:53:36.285Z,101520.97
2022-07-31T22:58:38.568Z,101525.28
2022-07-31T23:03:40.397Z,101521.00
2022-07-31T23:08:42.075Z,101536.47
2022-07-31T23:13:43.831Z,101532.16
2022-07-31T23:18:45.547Z,101528.97
2022-07-31T23:23:47.963Z,101533.88
2022-07-31T23:28:52.799Z,101536.69
2022-07-31T23:33:55.037Z,101529.63
2022-07-31T23:38:56.665Z,101532.63
2022-07-31T23:43:58.320Z,101537.09
2022-07-31T23:49:00.446Z,101534.53
2022-07-31T23:54:05.569Z,101537.94
2022-07-31T23:59:07.204Z,101535.84
